Time;durP1;ratioP1;P1;durP2;ratioP2;P2;SDS_P1;SDS_P2;PMS_P1;PMS_P2;Temp;Humidity;BMP_temperature;BMP_pressure;BME280_temperature;BME280_humidity;BME280_pressure;Samples;Min_cycle;Max_cycle;Signal;HPM_P1;HPM_P2
2022/09/25 00:01:50;;;;;;;0.00;0.00;;;;;;;;;;4968315;28;20237;-71
2022/09/25 00:04:19;;;;;;;0.00;0.00;;;;;;;;;;4969116;28;20202;-70
2022/09/25 00:06:47;;;;;;;0.00;0.00;;;;;;;;;;4988793;28;20213;-72
2022/09/25 00:09:19;;;;;;;0.00;0.00;;;;;;;;;;4969846;28;20202;-72
2022/09/25 00:11:47;;;;;;;0.00;0.00;;;;;;;;;;4975133;28;20213;-70
2022/09/25 00:14:15;;;;;;;0.00;0.00;;;;;;;;;;4971602;28;20216;-70
2022/09/25 00:16:42;;;;;;;0.00;0.00;;;;;;;;;;4986641;28;20292;-70
2022/09/25 00:21:54;;;;;;;0.00;0.00;;;;;;;;;;4961993;28;20237;-70
2022/09/25 00:24:22;;;;;;;0.00;0.00;;;;;;;;;;4968443;28;20224;-69
2022/09/25 00:26:50;;;;;;;0.00;0.00;;;;;;;;;;4970090;28;20229;-71
2022/09/25 00:29:19;;;;;;;0.00;0.00;;;;;;;;;;4969256;28;20237;-70
2022/09/25 00:31:46;;;;;;;0.00;0.00;;;;;;;;;;4967626;28;20225;-70
2022/09/25 00:34:13;;;;;;;0.00;0.00;;;;;;;;;;4968246;28;20212;-70
2022/09/25 00:36:40;;;;;;;0.00;0.00;;;;;;;;;;4963488;28;20214;-69
2022/09/25 00:39:08;;;;;;;0.00;0.00;;;;;;;;;;4968401;28;20643;-71
2022/09/25 00:41:35;;;;;;;0.00;0.00;;;;;;;;;;4966298;28;20304;-71
2022/09/25 00:44:04;;;;;;;0.00;0.00;;;;;;;;;;4961918;28;20210;-72
2022/09/25 00:46:34;;;;;;;0.00;0.00;;;;;;;;;;4969237;28;20225;-70
2022/09/25 00:49:03;;;;;;;0.00;0.00;;;;;;;;;;4970555;28;20269;-72
2022/09/25 00:51:35;;;;;;;0.10;0.10;;;;;;;;;;4970873;28;20284;-70
2022/09/25 00:54:05;;;;;;;0.00;0.00;;;;;;;;;;4977737;28;20203;-70
2022/09/25 00:56:36;;;;;;;0.00;0.00;;;;;;;;;;4967191;28;20281;-71
2022/09/25 00:59:06;;;;;;;0.00;0.00;;;;;;;;;;4970048;28;20300;-70
2022/09/25 01:01:33;;;;;;;0.00;0.00;;;;;;;;;;4975992;28;20228;-70
2022/09/25 01:04:01;;;;;;;0.00;0.00;;;;;;;;;;4972263;28;20198;-69
2022/09/25 01:06:28;;;;;;;0.00;0.00;;;;;;;;;;4969560;28;20213;-70
2022/09/25 01:08:56;;;;;;;0.00;0.00;;;;;;;;;;4966151;28;20261;-70
2022/09/25 01:11:23;;;;;;;0.00;0.00;;;;;;;;;;4973057;28;20225;-70
2022/09/25 01:13:52;;;;;;;0.00;0.00;;;;;;;;;;4969766;28;20277;-70
2022/09/25 01:16:27;;;;;;;0.00;0.00;;;;;;;;;;4964447;28;20202;-70
2022/09/25 01:19:03;;;;;;;0.00;0.00;;;;;;;;;;4969849;28;20256;-71
2022/09/25 01:21:35;;;;;;;0.00;0.00;;;;;;;;;;4970918;28;20225;-71
2022/09/25 01:24:38;;;;;;;0.00;0.00;;;;;;;;;;4967780;28;20194;-71
2022/09/25 01:27:16;;;;;;;0.00;0.00;;;;;;;;;;4970186;28;20270;-71
2022/09/25 01:29:46;;;;;;;0.00;0.00;;;;;;;;;;4976779;28;20206;-69
2022/09/25 01:32:18;;;;;;;0.00;0.00;;;;;;;;;;4967655;28;20226;-70
2022/09/25 01:34:50;;;;;;;0.00;0.00;;;;;;;;;;4964751;28;20202;-73
2022/09/25 01:37:21;;;;;;;0.00;0.00;;;;;;;;;;4969988;28;20216;-71
2022/09/25 01:39:56;;;;;;;0.00;0.00;;;;;;;;;;4970636;28;20241;-70
2022/09/25 01:42:26;;;;;;;0.00;0.00;;;;;;;;;;4969457;28;20221;-70
2022/09/25 01:44:57;;;;;;;0.00;0.00;;;;;;;;;;4964417;28;20205;-70
2022/09/25 01:47:27;;;;;;;0.00;0.00;;;;;;;;;;4971996;28;20749;-70
2022/09/25 01:49:57;;;;;;;0.00;0.00;;;;;;;;;;4971026;28;20222;-71
2022/09/25 01:52:28;;;;;;;0.00;0.00;;;;;;;;;;4971970;28;20205;-71
2022/09/25 01:54:59;;;;;;;0.00;0.00;;;;;;;;;;4975354;28;20235;-71
2022/09/25 01:57:28;;;;;;;0.00;0.00;;;;;;;;;;4970330;28;20230;-71
2022/09/25 01:59:58;;;;;;;0.00;0.00;;;;;;;;;;4975429;28;20228;-71
2022/09/25 02:02:28;;;;;;;0.00;0.00;;;;;;;;;;4982832;28;20221;-71
2022/09/25 02:04:58;;;;;;;0.00;0.00;;;;;;;;;;4977207;28;20212;-70
2022/09/25 02:07:28;;;;;;;0.00;0.00;;;;;;;;;;4970835;28;20252;-70
2022/09/25 02:09:58;;;;;;;0.00;0.00;;;;;;;;;;4972126;28;20222;-71
2022/09/25 02:12:33;;;;;;;0.00;0.00;;;;;;;;;;4972465;28;20198;-71
2022/09/25 02:15:03;;;;;;;0.00;0.00;;;;;;;;;;4977201;28;20212;-71
2022/09/25 02:20:32;;;;;;;0.00;0.00;;;;;;;;;;4949429;28;20234;-71
2022/09/25 02:23:02;;;;;;;0.00;0.00;;;;;;;;;;4982803;28;20222;-71
2022/09/25 02:25:34;;;;;;;0.00;0.00;;;;;;;;;;4970558;28;20201;-70
2022/09/25 02:28:02;;;;;;;0.00;0.00;;;14.00;99.90;;;;;;4980950;28;20210;-71
2022/09/25 02:30:30;;;;;;;0.00;0.00;;;13.40;99.90;;;;;;4970959;28;20313;-70
2022/09/25 02:32:57;;;;;;;0.00;0.00;;;13.40;99.90;;;;;;4970683;28;20205;-70
2022/09/25 02:35:24;;;;;;;0.00;0.00;;;13.40;99.90;;;;;;4970352;28;20252;-70
2022/09/25 02:37:52;;;;;;;0.00;0.00;;;13.40;99.90;;;;;;4973540;28;20238;-71
2022/09/25 02:40:22;;;;;;;0.00;0.00;;;13.40;99.90;;;;;;4968200;28;20222;-71
2022/09/25 02:42:56;;;;;;;0.00;0.00;;;13.40;99.90;;;;;;4983167;28;20221;-70
2022/09/25 02:45:37;;;;;;;0.00;0.00;;;13.40;99.90;;;;;;4970787;28;20212;-70
2022/09/25 02:48:13;;;;;;;0.00;0.00;;;13.40;99.90;;;;;;4972599;28;20205;-71
2022/09/25 02:50:51;;;;;;;0.00;0.00;;;13.40;99.90;;;;;;4968567;28;20301;-71
2022/09/25 02:53:28;;;;;;;0.00;0.00;;;13.40;99.90;;;;;;4968683;28;20205;-71
2022/09/25 02:55:59;;;;;;;0.00;0.00;;;13.40;99.90;;;;;;4970610;28;20802;-70
2022/09/25 02:58:29;;;;;;;0.07;0.07;;;13.40;99.90;;;;;;4972937;28;20202;-70
2022/09/25 03:01:00;;;;;;;0.00;0.00;;;13.40;99.90;;;;;;4966373;28;20796;-70
2022/09/25 03:03:28;;;;;;;0.00;0.00;;;13.40;99.90;;;;;;4973554;28;20279;-70
2022/09/25 03:05:56;;;;;;;0.00;0.00;;;13.40;99.90;;;;;;4982322;28;20201;-69
2022/09/25 03:08:37;;;;;;;0.00;0.00;;;13.40;99.90;;;;;;4969307;28;20202;-70
2022/09/25 03:13:42;;;;;;;0.00;0.00;;;13.40;99.90;;;;;;5030878;28;20283;-66
2022/09/25 03:16:18;;;;;;;0.00;0.00;;;13.30;99.90;;;;;;5009216;28;20300;-68
2022/09/25 03:18:45;;;;;;;0.00;0.00;;;13.30;99.90;;;;;;5002961;28;20243;-68
2022/09/25 03:21:12;;;;;;;0.00;0.00;;;13.30;99.90;;;;;;5020442;28;20208;-69
2022/09/25 03:23:40;;;;;;;0.00;0.00;;;13.30;99.90;;;;;;5006349;28;20233;-68
2022/09/25 03:26:08;;;;;;;0.00;0.00;;;13.30;99.90;;;;;;5006380;28;20231;-67
2022/09/25 03:28:35;;;;;;;0.00;0.00;;;13.30;99.90;;;;;;5020918;28;20210;-68
2022/09/25 03:31:04;;;;;;;0.00;0.00;;;13.30;99.90;;;;;;5009281;28;20199;-69
2022/09/25 03:33:35;;;;;;;0.00;0.00;;;13.30;99.90;;;;;;5006340;28;20205;-69
2022/09/25 03:36:05;;;;;;;0.00;0.00;;;13.30;99.90;;;;;;5002654;28;20264;-69
2022/09/25 03:38:32;;;;;;;0.00;0.00;;;;;;;;;;5006113;28;20203;-68
2022/09/25 03:40:59;;;;;;;0.00;0.00;;;;;;;;;;5008340;28;20208;-69
2022/09/25 03:43:27;;;;;;;0.00;0.00;;;;;;;;;;5006911;28;20762;-69
2022/09/25 03:45:54;;;;;;;0.00;0.00;;;;;;;;;;5004404;28;20228;-68
2022/09/25 03:48:21;;;;;;;0.00;0.00;;;;;;;;;;5006758;28;20263;-68
2022/09/25 03:50:50;;;;;;;0.00;0.00;;;;;;;;;;5002009;28;20215;-68
2022/09/25 03:53:18;;;;;;;0.00;0.00;;;;;;;;;;5006425;28;20197;-68
2022/09/25 03:55:47;;;;;;;0.00;0.00;;;;;;;;;;5033852;28;20220;-68
2022/09/25 03:58:15;;;;;;;0.00;0.00;;;;;;;;;;5008407;28;20282;-68
2022/09/25 04:00:43;;;;;;;0.00;0.00;;;;;;;;;;5005685;28;20266;-69
2022/09/25 04:03:10;;;;;;;0.00;0.00;;;;;;;;;;5006551;28;20223;-68
2022/09/25 04:05:38;;;;;;;0.00;0.00;;;;;;;;;;5007866;28;20244;-69
2022/09/25 04:08:07;;;;;;;0.00;0.00;;;;;;;;;;5003991;28;20201;-68
2022/09/25 04:10:37;;;;;;;0.00;0.00;;;;;;;;;;5004595;28;20193;-68
2022/09/25 04:13:05;;;;;;;0.00;0.00;;;;;;;;;;5005414;28;20209;-68
2022/09/25 04:15:33;;;;;;;0.00;0.00;;;;;;;;;;5005647;28;20225;-68
2022/09/25 04:18:01;;;;;;;0.00;0.00;;;;;;;;;;5007752;28;20224;-68
2022/09/25 04:20:28;;;;;;;0.10;0.10;;;;;;;;;;5001162;28;20204;-68
2022/09/25 04:22:56;;;;;;;0.00;0.00;;;;;;;;;;5005809;28;20217;-68
2022/09/25 04:25:25;;;;;;;0.00;0.00;;;;;;;;;;5005022;28;20270;-68
2022/09/25 04:27:54;;;;;;;0.00;0.00;;;;;;;;;;5005620;28;20221;-69
2022/09/25 04:30:22;;;;;;;0.10;0.10;;;;;;;;;;5038105;28;20216;-68
2022/09/25 04:35:34;;;;;;;0.00;0.00;;;;;;;;;;5005535;28;20284;-69
2022/09/25 04:38:02;;;;;;;0.00;0.00;;;;;;;;;;5003415;28;20200;-68
2022/09/25 04:40:31;;;;;;;0.00;0.00;;;;;;;;;;5031920;28;20225;-67
2022/09/25 04:42:58;;;;;;;0.00;0.00;;;;;;;;;;5002252;28;20225;-68
2022/09/25 04:45:26;;;;;;;0.00;0.00;;;;;;;;;;5005140;28;20276;-69
2022/09/25 04:47:53;;;;;;;0.00;0.00;;;;;;;;;;5004874;28;20219;-68
2022/09/25 04:50:21;;;;;;;0.00;0.00;;;;;;;;;;5011120;28;20299;-69
2022/09/25 04:52:50;;;;;;;0.10;0.10;;;;;;;;;;5006004;28;20201;-69
2022/09/25 04:55:17;;;;;;;0.00;0.00;;;;;;;;;;5002968;28;20629;-68
2022/09/25 04:57:51;;;;;;;0.10;0.10;;;;;;;;;;5004150;28;20673;-69
2022/09/25 05:00:18;;;;;;;0.10;0.10;;;;;;;;;;4998711;28;20301;-69
2022/09/25 05:02:46;;;;;;;0.00;0.00;;;;;;;;;;5005752;28;20232;-69
2022/09/25 05:05:14;;;;;;;0.00;0.00;;;;;;;;;;5009176;28;20225;-69
2022/09/25 05:07:50;;;;;;;0.00;0.00;;;;;;;;;;5007849;28;20196;-69
2022/09/25 05:10:19;;;;;;;0.00;0.00;;;;;;;;;;5004456;28;20204;-68
2022/09/25 05:12:49;;;;;;;0.00;0.00;;;;;;;;;;5004790;28;20254;-68
2022/09/25 05:15:16;;;;;;;0.00;0.00;;;;;;;;;;5004544;28;20251;-68
2022/09/25 05:17:44;;;;;;;0.10;0.10;;;;;;;;;;5003081;28;20287;-68
2022/09/25 05:20:11;;;;;;;0.00;0.00;;;;;;;;;;5021670;28;20239;-68
2022/09/25 05:22:38;;;;;;;0.00;0.00;;;;;;;;;;5005334;28;20207;-68
2022/09/25 05:25:06;;;;;;;0.00;0.00;;;;;;;;;;5036364;28;20318;-69
2022/09/25 05:27:34;;;;;;;0.00;0.00;;;;;;;;;;5039484;28;20288;-68
2022/09/25 05:30:02;;;;;;;0.10;0.10;;;;;;;;;;5006405;28;20291;-68
2022/09/25 05:32:30;;;;;;;0.00;0.00;;;;;;;;;;5008441;28;20299;-69
2022/09/25 05:34:57;;;;;;;0.00;0.00;;;;;;;;;;5006005;28;20209;-68
2022/09/25 05:37:25;;;;;;;0.00;0.00;;;;;;;;;;5008296;28;20728;-68
2022/09/25 05:39:53;;;;;;;0.00;0.00;;;;;;;;;;5008656;28;20228;-69
2022/09/25 05:42:20;;;;;;;0.10;0.10;;;;;;;;;;5003287;28;20197;-68
2022/09/25 05:44:47;;;;;;;0.10;0.10;;;;;;;;;;5007534;28;20232;-68
2022/09/25 05:47:17;;;;;;;0.00;0.00;;;;;;;;;;5009049;28;20204;-68
2022/09/25 05:49:44;;;;;;;0.00;0.00;;;;;;;;;;5012231;28;20205;-68
2022/09/25 05:52:12;;;;;;;0.00;0.00;;;;;;;;;;5032923;28;20223;-68
2022/09/25 05:54:39;;;;;;;0.03;0.03;;;;;;;;;;5002870;28;20225;-68
2022/09/25 05:57:07;;;;;;;0.10;0.10;;;;;;;;;;5004355;28;20208;-68
2022/09/25 05:59:34;;;;;;;0.00;0.00;;;;;;;;;;5010820;28;20208;-68
2022/09/25 06:02:02;;;;;;;0.00;0.00;;;;;;;;;;5012222;28;20247;-68
2022/09/25 06:04:31;;;;;;;0.00;0.00;;;;;;;;;;5006941;28;20225;-69
2022/09/25 06:07:01;;;;;;;0.00;0.00;;;;;;;;;;5007209;28;20199;-69
2022/09/25 06:09:28;;;;;;;0.10;0.10;;;;;;;;;;5007566;28;20308;-68
2022/09/25 06:11:56;;;;;;;0.00;0.00;;;;;;;;;;5005998;28;20208;-68
2022/09/25 06:14:23;;;;;;;0.10;0.10;;;;;;;;;;5008853;28;20210;-68
2022/09/25 06:16:51;;;;;;;0.00;0.00;;;;;;;;;;5007733;28;20196;-68
2022/09/25 06:19:19;;;;;;;0.00;0.00;;;;;;;;;;5033883;28;20205;-68
2022/09/25 06:21:48;;;;;;;0.10;0.10;;;;;;;;;;5008430;28;20205;-68
2022/09/25 06:24:15;;;;;;;0.00;0.00;;;;;;;;;;5036432;28;20286;-68
2022/09/25 06:26:42;;;;;;;0.10;0.10;;;;;;;;;;5026301;28;20205;-68
2022/09/25 06:29:10;;;;;;;0.00;0.00;;;;;;;;;;5004754;28;20201;-69
2022/09/25 06:31:38;;;;;;;0.00;0.00;;;;;;;;;;5007654;28;20208;-68
2022/09/25 06:34:05;;;;;;;0.00;0.00;;;;;;;;;;5006112;28;20193;-68
2022/09/25 06:36:32;;;;;;;0.10;0.10;;;;;;;;;;5009013;28;20204;-68
2022/09/25 06:39:01;;;;;;;0.10;0.10;;;;;;;;;;5009555;28;20197;-68
2022/09/25 06:41:29;;;;;;;0.00;0.00;;;;;;;;;;5034750;28;20204;-69
2022/09/25 06:43:56;;;;;;;0.00;0.00;;;;;;;;;;5006814;28;20220;-69
2022/09/25 06:46:23;;;;;;;0.00;0.00;;;;;;;;;;5008601;28;20316;-68
2022/09/25 06:48:53;;;;;;;0.00;0.00;;;;;;;;;;5006145;28;20224;-68
2022/09/25 06:51:20;;;;;;;0.00;0.00;;;;;;;;;;5036571;28;20250;-69
2022/09/25 06:53:47;;;;;;;0.00;0.00;;;;;;;;;;5006100;28;20280;-68
2022/09/25 06:56:16;;;;;;;0.00;0.00;;;;;;;;;;5005147;28;20232;-68
2022/09/25 06:58:44;;;;;;;0.00;0.00;;;;;;;;;;5006058;28;20205;-67
2022/09/25 07:01:12;;;;;;;0.00;0.00;;;;;;;;;;5018030;28;20197;-68
2022/09/25 07:03:46;;;;;;;0.00;0.00;;;;;;;;;;5002541;28;20272;-68
2022/09/25 07:06:15;;;;;;;0.00;0.00;;;;;;;;;;5006455;28;20231;-67
2022/09/25 07:08:43;;;;;;;0.00;0.00;;;;;;;;;;5009022;28;20287;-67
2022/09/25 07:11:13;;;;;;;0.00;0.00;;;;;;;;;;5002472;28;20224;-67
2022/09/25 07:13:42;;;;;;;0.07;0.07;;;;;;;;;;5003354;28;20205;-67
2022/09/25 07:16:11;;;;;;;0.00;0.00;;;;;;;;;;5003136;28;20217;-69
2022/09/25 07:18:39;;;;;;;0.00;0.00;;;;;;;;;;5033979;28;20199;-68
2022/09/25 07:21:07;;;;;;;0.10;0.10;;;;;;;;;;5007654;28;20197;-68
2022/09/25 07:23:34;;;;;;;0.00;0.00;;;;;;;;;;5042873;28;20204;-68
2022/09/25 07:26:06;;;;;;;0.00;0.00;;;;;;;;;;5009696;28;20220;-67
2022/09/25 07:28:33;;;;;;;0.00;0.00;;;;;;;;;;5013088;28;20306;-67
2022/09/25 07:31:10;;;;;;;0.00;0.00;;;;;;;;;;5006137;28;20208;-68
2022/09/25 07:33:37;;;;;;;0.00;0.00;;;;;;;;;;5036963;28;20283;-67
2022/09/25 07:36:05;;;;;;;0.00;0.00;;;;;;;;;;5034065;28;20694;-69
2022/09/25 07:38:35;;;;;;;0.00;0.00;;;;;;;;;;5010316;28;20276;-69
2022/09/25 07:41:04;;;;;;;0.00;0.00;;;;;;;;;;5023630;28;20200;-69
2022/09/25 07:43:31;;;;;;;0.00;0.00;;;;;;;;;;5009004;28;20292;-67
2022/09/25 07:45:59;;;;;;;0.00;0.00;;;;;;;;;;5006338;28;20231;-68
2022/09/25 07:48:29;;;;;;;0.00;0.00;;;;;;;;;;5005812;28;20247;-69
2022/09/25 07:50:59;;;;;;;0.00;0.00;;;;;;;;;;5007631;28;20205;-68
2022/09/25 07:53:27;;;;;;;0.00;0.00;;;;;;;;;;4999968;28;20211;-68
2022/09/25 07:55:56;;;;;;;0.00;0.00;;;;;;;;;;5002661;28;20221;-68
2022/09/25 07:58:24;;;;;;;0.00;0.00;;;;;;;;;;5031513;28;20232;-69
2022/09/25 08:00:53;;;;;;;0.00;0.00;;;;;;;;;;5042035;28;20292;-68
2022/09/25 08:03:20;;;;;;;0.00;0.00;;;;;;;;;;5019905;28;20207;-68
2022/09/25 08:05:48;;;;;;;0.00;0.00;;;;;;;;;;5007520;28;20681;-69
2022/09/25 08:08:16;;;;;;;0.00;0.00;;;;;;;;;;5031036;28;20204;-68
2022/09/25 08:10:43;;;;;;;0.00;0.00;;;;;;;;;;4999993;28;20196;-67
2022/09/25 08:13:10;;;;;;;0.00;0.00;;;;;;;;;;5027617;28;20311;-68
2022/09/25 08:15:38;;;;;;;0.00;0.00;;;;;;;;;;4999534;28;20350;-68
2022/09/25 08:18:05;;;;;;;0.00;0.00;;;;;;;;;;4992004;28;20259;-68
2022/09/25 08:20:32;;;;;;;0.00;0.00;;;;;;;;;;5021015;28;20220;-68
2022/09/25 08:23:01;;;;;;;0.00;0.00;;;;;;;;;;5032709;28;20205;-68
2022/09/25 08:25:28;;;;;;;0.00;0.00;;;;;;;;;;5006429;28;20228;-68
2022/09/25 08:27:55;;;;;;;0.00;0.00;;;;;;;;;;5020794;28;20208;-67
2022/09/25 08:30:23;;;;;;;0.00;0.00;;;;;;;;;;4999364;28;20212;-67
2022/09/25 08:32:51;;;;;;;0.00;0.00;;;;;;;;;;5001822;28;20243;-67
2022/09/25 08:35:18;;;;;;;0.00;0.00;;;;;;;;;;5005297;28;20229;-69
2022/09/25 08:37:47;;;;;;;0.00;0.00;;;;;;;;;;5020001;28;20547;-68
2022/09/25 08:40:20;;;;;;;0.00;0.00;;;;;;;;;;5032017;28;20223;-67
2022/09/25 08:42:49;;;;;;;0.00;0.00;;;;;;;;;;5003237;28;20647;-66
2022/09/25 08:51:07;;;;;;;0.00;0.00;;;;;;;;;;5032499;28;20622;-66
2022/09/25 08:53:35;;;;;;;0.00;0.00;;;;;;;;;;4999740;28;20213;-66
2022/09/25 08:56:16;;;;;;;0.00;0.00;;;;;;;;;;5002486;28;20598;-66
2022/09/25 08:58:45;;;;;;;0.00;0.00;;;;;;;;;;5032289;28;20209;-67
2022/09/25 09:01:14;;;;;;;0.00;0.00;;;;;;;;;;5038140;28;20216;-66
2022/09/25 09:03:45;;;;;;;0.00;0.00;;;;;;;;;;5016901;28;20197;-67
2022/09/25 09:06:14;;;;;;;0.00;0.00;;;;;;;;;;5035956;28;20233;-68
2022/09/25 09:08:44;;;;;;;0.00;0.00;;;;;;;;;;5004684;28;20200;-67
2022/09/25 09:11:15;;;;;;;0.00;0.00;;;;;;;;;;5009807;28;20216;-66
2022/09/25 09:13:50;;;;;;;0.00;0.00;;;;;;;;;;5002262;28;20196;-66
2022/09/25 09:16:22;;;;;;;0.00;0.00;;;;;;;;;;5002650;28;20221;-66
2022/09/25 09:18:49;;;;;;;0.00;0.00;;;;;;;;;;5002922;28;20204;-66
2022/09/25 09:21:21;;;;;;;0.00;0.00;;;;;;;;;;5003761;28;20204;-66
2022/09/25 09:23:52;;;;;;;0.00;0.00;;;;;;;;;;5003714;28;20279;-67
2022/09/25 09:26:25;;;;;;;0.00;0.00;;;;;;;;;;5029514;28;20625;-66
2022/09/25 09:28:59;;;;;;;0.00;0.00;;;;;;;;;;5005259;28;20220;-67
2022/09/25 09:31:31;;;;;;;0.00;0.00;;;;;;;;;;5021504;28;20204;-67
2022/09/25 09:34:02;;;;;;;0.00;0.00;;;;;;;;;;5004248;28;20231;-66
2022/09/25 09:36:33;;;;;;;0.00;0.00;;;;;;;;;;5032516;28;20235;-68
2022/09/25 09:39:04;;;;;;;0.00;0.00;;;;;;;;;;5006681;28;20205;-67
2022/09/25 09:41:45;;;;;;;0.00;0.00;;;;;;;;;;5035873;28;20247;-67
2022/09/25 09:44:18;;;;;;;0.00;0.00;;;;;;;;;;5000430;28;20223;-67
2022/09/25 09:46:57;;;;;;;0.00;0.00;;;17.80;99.90;;;;;;5004704;28;20200;-68
2022/09/25 09:49:29;;;;;;;0.00;0.00;;;;;;;;;;5003569;28;20208;-67
2022/09/25 09:51:59;;;;;;;0.00;0.00;;;;;;;;;;5002637;28;20223;-67
2022/09/25 09:54:31;;;;;;;0.00;0.00;;;;;;;;;;5013764;28;20240;-67
2022/09/25 09:57:01;;;;;;;0.00;0.00;;;;;;;;;;4995823;28;20288;-67
2022/09/25 09:59:31;;;;;;;0.00;0.00;;;;;;;;;;5005328;28;20208;-68
2022/09/25 10:02:02;;;;;;;0.00;0.00;;;;;;;;;;5001528;28;20200;-67
2022/09/25 10:04:32;;;;;;;0.00;0.00;;;;;;;;;;5035827;28;20279;-67
2022/09/25 10:07:02;;;;;;;0.00;0.00;;;;;;;;;;5005484;28;20220;-67
2022/09/25 10:09:29;;;;;;;0.00;0.00;;;;;;;;;;5009179;28;20215;-67
2022/09/25 10:11:59;;;;;;;0.00;0.00;;;;;;;;;;5005157;28;20228;-69
2022/09/25 10:14:31;;;;;;;0.00;0.00;;;;;;;;;;5042021;28;20314;-68
2022/09/25 10:16:58;;;;;;;0.00;0.00;;;;;;;;;;5005265;28;20642;-68
2022/09/25 10:19:27;;;;;;;0.00;0.00;;;;;;;;;;5022602;28;20219;-67
2022/09/25 10:21:58;;;;;;;0.00;0.00;;;;;;;;;;5001133;28;20204;-66
2022/09/25 10:24:45;;;;;;;0.00;0.00;;;;;;;;;;5007467;28;20208;-68
2022/09/25 10:27:21;;;;;;;0.00;0.00;;;;;;;;;;5007952;28;20216;-68
2022/09/25 10:30:01;;;;;;;0.00;0.00;;;;;;;;;;5005829;28;20232;-67
2022/09/25 10:32:28;;;;;;;0.00;0.00;;;;;;;;;;5006973;28;20209;-68
2022/09/25 10:34:56;;;;;;;0.00;0.00;;;;;;;;;;4994169;28;20803;-68
2022/09/25 10:37:23;;;;;;;0.00;0.00;;;;;;;;;;5011843;28;20204;-68
2022/09/25 10:40:01;;;;;;;0.00;0.00;;;;;;;;;;5008646;28;20553;-67
2022/09/25 10:42:33;;;;;;;0.00;0.00;;;;;;;;;;5026693;28;20862;-67
2022/09/25 10:45:15;;;;;;;0.00;0.00;;;;;;;;;;5015671;28;20228;-67
2022/09/25 10:50:29;;;;;;;0.00;0.00;;;;;;;;;;5008026;28;20208;-67
2022/09/25 10:52:58;;;;;;;0.00;0.00;;;;;;;;;;5002541;28;20201;-68
2022/09/25 10:55:26;;;;;;;0.00;0.00;;;;;;;;;;5005065;28;20220;-68
2022/09/25 10:57:57;;;;;;;0.00;0.00;;;;;;;;;;5005612;28;20209;-68
2022/09/25 11:00:27;;;;;;;0.00;0.00;;;;;;;;;;5006692;28;20204;-67
2022/09/25 11:02:56;;;;;;;0.00;0.00;;;;;;;;;;5014038;28;20208;-68
2022/09/25 11:05:26;;;;;;;0.00;0.00;;;;;;;;;;4999489;28;20224;-69
2022/09/25 11:07:55;;;;;;;0.00;0.00;;;;;;;;;;5001410;28;20284;-66
2022/09/25 11:10:23;;;;;;;0.00;0.00;;;;;;;;;;5004919;28;20201;-67
2022/09/25 11:12:51;;;;;;;0.00;0.00;;;;;;;;;;5010647;28;20653;-68
2022/09/25 11:15:21;;;;;;;0.00;0.00;;;;;;;;;;4998113;28;20235;-67
2022/09/25 11:17:50;;;;;;;0.00;0.00;;;;;;;;;;5002275;28;20241;-66
2022/09/25 11:20:26;;;;;;;0.00;0.00;;;;;;;;;;5002916;28;20208;-68
2022/09/25 11:22:57;;;;;;;0.00;0.00;;;;;;;;;;5000410;28;20205;-67
2022/09/25 11:25:27;;;;;;;0.00;0.00;;;;;;;;;;5003400;28;20304;-66
2022/09/25 11:27:59;;;;;;;0.00;0.00;;;;;;;;;;5034759;28;20293;-67
2022/09/25 11:30:31;;;;;;;0.00;0.00;;;;;;;;;;5002947;28;20235;-68
2022/09/25 11:33:03;;;;;;;0.00;0.00;;;;;;;;;;5007380;28;20212;-67
2022/09/25 11:35:41;;;;;;;0.00;0.00;;;;;;;;;;5004250;28;20227;-68
2022/09/25 11:38:13;;;;;;;0.00;0.00;;;;;;;;;;4998969;28;20235;-69
2022/09/25 11:43:43;;;;;;;0.00;0.00;;;;;;;;;;5020342;28;20204;-69
2022/09/25 11:46:17;;;;;;;0.00;0.00;;;;;;;;;;4995758;28;20224;-68
2022/09/25 11:48:50;;;;;;;0.00;0.00;;;;;;;;;;4992755;28;20228;-68
2022/09/25 11:51:23;;;;;;;0.00;0.00;;;;;;;;;;5026315;28;20212;-67
2022/09/25 11:53:55;;;;;;;0.00;0.00;;;;;;;;;;4992376;28;20212;-69
2022/09/25 11:56:27;;;;;;;0.00;0.00;;;;;;;;;;4995245;28;20217;-68
2022/09/25 11:59:06;;;;;;;0.00;0.00;;;;;;;;;;4996677;28;20204;-67
2022/09/25 12:01:36;;;;;;;0.00;0.00;;;;;;;;;;5000700;28;20208;-68
2022/09/25 12:04:14;;;;;;;0.00;0.00;;;;;;;;;;5001553;28;20203;-67
2022/09/25 12:06:59;;;;;;;0.00;0.00;;;;;;;;;;5003900;28;20278;-68
2022/09/25 12:09:46;;;;;;;0.00;0.00;;;;;;;;;;5034247;28;20208;-68
2022/09/25 12:12:18;;;;;;;0.00;0.00;;;;;;;;;;5033180;28;20213;-67
2022/09/25 12:14:49;;;;;;;0.00;0.00;;;;;;;;;;5005213;28;20224;-67
2022/09/25 12:17:19;;;;;;;0.00;0.00;;;;;;;;;;4998275;28;20201;-68
2022/09/25 12:19:52;;;;;;;0.00;0.00;;;;;;;;;;4998887;28;20251;-68
2022/09/25 12:22:43;;;;;;;0.00;0.00;;;;;;;;;;4995259;28;20581;-69
2022/09/25 12:25:15;;;;;;;0.00;0.00;;;;;;;;;;5033087;28;20839;-70
2022/09/25 12:27:47;;;;;;;0.00;0.00;;;;;;;;;;4990639;28;20209;-68
2022/09/25 12:30:19;;;;;;;0.00;0.00;;;;;;;;;;5011556;28;20303;-68
2022/09/25 12:32:58;;;;;;;0.00;0.00;;;;;;;;;;5004354;28;20205;-69
2022/09/25 12:35:34;;;;;;;0.00;0.00;;;;;;;;;;5003844;28;20243;-69
2022/09/25 12:38:09;;;;;;;0.00;0.00;;;;;;;;;;5027623;28;20205;-69
2022/09/25 12:40:38;;;;;;;0.00;0.00;;;;;;;;;;5034814;28;20211;-69
2022/09/25 12:43:07;;;;;;;0.00;0.00;;;;;;;;;;4999908;28;20219;-68
2022/09/25 12:45:38;;;;;;;0.00;0.00;;;;;;;;;;5019258;28;20696;-68
2022/09/25 12:48:10;;;;;;;0.00;0.00;;;;;;;;;;5002172;28;20203;-69
2022/09/25 12:50:43;;;;;;;0.00;0.00;;;;;;;;;;5013361;28;20324;-68
2022/09/25 12:53:20;;;;;;;0.00;0.00;;;;;;;;;;5004370;28;20290;-70
2022/09/25 12:55:50;;;;;;;0.00;0.00;;;;;;;;;;5003629;28;20224;-68
2022/09/25 12:58:21;;;;;;;0.00;0.00;;;;;;;;;;5023745;28;20212;-68
2022/09/25 13:00:53;;;;;;;0.00;0.00;;;;;;;;;;5026208;28;20272;-70
2022/09/25 13:03:24;;;;;;;0.00;0.00;;;;;;;;;;5025651;28;20689;-68
2022/09/25 13:05:55;;;;;;;0.00;0.00;;;;;;;;;;4990411;28;20229;-68
2022/09/25 13:08:23;;;;;;;0.00;0.00;;;;;;;;;;5023589;28;20218;-69
2022/09/25 13:10:53;;;;;;;0.00;0.00;;;;;;;;;;4994471;28;20199;-69
2022/09/25 13:13:23;;;;;;;0.00;0.00;;;;;;;;;;5003967;28;20209;-68
2022/09/25 13:15:52;;;;;;;0.00;0.00;;;;;;;;;;5001928;28;20223;-69
2022/09/25 13:18:20;;;;;;;0.00;0.00;;;;;;;;;;5032166;28;20333;-71
2022/09/25 13:20:49;;;;;;;0.00;0.00;;;;;;;;;;5000074;28;20231;-71
2022/09/25 13:23:25;;;;;;;0.00;0.00;;;;;;;;;;4999841;28;20213;-71
2022/09/25 13:25:59;;;;;;;0.00;0.00;;;;;;;;;;5029166;28;20224;-71
2022/09/25 13:28:28;;;;;;;0.00;0.00;;;;;;;;;;5012733;28;20200;-71
2022/09/25 13:31:05;;;;;;;0.00;0.00;;;;;;;;;;5002879;28;20196;-71
2022/09/25 13:33:36;;;;;;;0.00;0.00;;;;;;;;;;5026846;28;20236;-70
2022/09/25 13:36:08;;;;;;;0.00;0.00;;;;;;;;;;4999458;28;20221;-72
2022/09/25 13:41:28;;;;;;;0.00;0.00;;;;;;;;;;5003653;28;20273;-70
2022/09/25 13:44:14;;;;;;;0.00;0.00;;;;;;;;;;5019496;28;20204;-70
2022/09/25 13:46:42;;;;;;;0.00;0.00;;;;;;;;;;5016345;28;20291;-71
2022/09/25 13:49:24;;;;;;;0.00;0.00;;;;;;;;;;5027677;28;20205;-71
2022/09/25 13:51:52;;;;;;;0.00;0.00;;;;;;;;;;5033965;28;20239;-72
2022/09/25 13:54:28;;;;;;;0.00;0.00;;;;;;;;;;5004892;28;20205;-77
2022/09/25 13:56:55;;;;;;;0.00;0.00;;;;;;;;;;5037005;28;20197;-71
2022/09/25 13:59:37;;;;;;;0.00;0.00;;;;;;;;;;5004560;28;20192;-71
2022/09/25 14:02:25;;;;;;;0.00;0.00;;;;;;;;;;5032693;28;20918;-70
2022/09/25 14:04:53;;;;;;;0.00;0.00;;;;;;;;;;5031880;28;20287;-69
2022/09/25 14:07:22;;;;;;;0.00;0.00;;;;;;;;;;5006081;28;20224;-68
2022/09/25 14:09:53;;;;;;;0.00;0.00;;;;;;;;;;5006512;28;20259;-70
2022/09/25 14:12:38;;;;;;;0.00;0.00;;;;;;;;;;4957032;28;1385286;-69
2022/09/25 14:15:07;;;;;;;0.00;0.00;;;;;;;;;;5005205;28;20248;-68
2022/09/25 14:17:35;;;;;;;0.00;0.00;;;;;;;;;;5006455;28;20193;-70
2022/09/25 14:20:05;;;;;;;0.00;0.00;;;;;;;;;;5003326;28;20220;-69
2022/09/25 14:22:38;;;;;;;0.00;0.00;;;;;;;;;;5002719;28;20303;-69
2022/09/25 14:25:22;;;;;;;0.00;0.00;;;;;;;;;;5003641;28;20228;-69
2022/09/25 14:27:52;;;;;;;0.00;0.00;;;;;;;;;;5004480;28;20220;-69
2022/09/25 14:30:20;;;;;;;0.00;0.00;;;;;;;;;;4997548;28;20201;-69
2022/09/25 14:32:54;;;;;;;0.00;0.00;;;;;;;;;;4999939;28;20269;-69
2022/09/25 14:35:28;;;;;;;0.00;0.00;;;;;;;;;;5000380;28;20299;-69
2022/09/25 14:38:06;;;;;;;0.00;0.00;;;;;;;;;;4997492;28;20204;-71
2022/09/25 14:40:36;;;;;;;0.00;0.00;;;;;;;;;;5003463;28;20772;-69
2022/09/25 14:43:18;;;;;;;0.00;0.00;;;;;;;;;;5003959;28;20228;-69
2022/09/25 14:45:52;;;;;;;0.00;0.00;;;;;;;;;;5031440;28;20225;-69
2022/09/25 14:48:20;;;;;;;0.00;0.00;;;;;;;;;;5030475;28;20264;-69
2022/09/25 14:50:49;;;;;;;0.00;0.00;;;;;;;;;;5014315;28;20200;-68
2022/09/25 14:53:21;;;;;;;0.00;0.00;;;;;;;;;;5030815;28;20213;-68
2022/09/25 14:55:51;;;;;;;0.00;0.00;;;;;;;;;;5010739;28;20224;-69
2022/09/25 14:58:21;;;;;;;0.00;0.00;;;;;;;;;;5019423;28;20201;-71
2022/09/25 15:00:51;;;;;;;0.00;0.00;;;;;;;;;;5014432;28;20205;-68
2022/09/25 15:03:20;;;;;;;0.00;0.00;;;;;;;;;;5014882;28;20205;-69
2022/09/25 15:05:48;;;;;;;0.00;0.00;;;;;;;;;;5031846;28;20299;-69
2022/09/25 15:08:21;;;;;;;0.00;0.00;;;;;;;;;;5001441;28;20307;-68
2022/09/25 15:10:48;;;;;;;0.00;0.00;;;;;;;;;;5036719;28;20201;-69
2022/09/25 15:13:17;;;;;;;0.00;0.00;;;;;;;;;;5032217;28;20209;-69
2022/09/25 15:18:29;;;;;;;0.00;0.00;;;;;;;;;;5006120;28;20204;-69
2022/09/25 15:20:56;;;;;;;0.00;0.00;;;;;;;;;;5006491;28;20297;-68